createdAt,value
2022-11-01T00:02:00.963Z,12.12
2022-11-01T00:04:28.960Z,12.10
2022-11-01T00:06:56.999Z,12.10
2022-11-01T00:09:26.382Z,12.08
2022-11-01T00:11:54.368Z,12.09
2022-11-01T00:14:22.717Z,12.12
2022-11-01T00:16:50.692Z,12.11
2022-11-01T00:19:20.022Z,12.15
2022-11-01T00:21:48.192Z,12.18
2022-11-01T00:24:16.169Z,12.20
2022-11-01T00:26:44.301Z,12.17
2022-11-01T00:29:12.780Z,12.15
2022-11-01T00:31:41.071Z,12.17
2022-11-01T00:34:09.221Z,12.03
2022-11-01T00:36:37.208Z,11.77
2022-11-01T00:39:06.833Z,11.53
2022-11-01T00:41:35.159Z,11.59
2022-11-01T00:44:04.401Z,11.58
2022-11-01T00:46:33.529Z,11.47
2022-11-01T00:49:01.450Z,11.48
2022-11-01T00:51:29.611Z,11.59
2022-11-01T00:53:57.613Z,11.68
2022-11-01T00:56:25.679Z,11.63
2022-11-01T00:58:53.704Z,11.43
2022-11-01T01:01:21.844Z,11.46
2022-11-01T01:03:49.925Z,11.56
2022-11-01T01:06:17.856Z,11.66
2022-11-01T01:08:45.797Z,11.78
2022-11-01T01:11:13.688Z,11.88
2022-11-01T01:13:41.651Z,11.88
2022-11-01T01:16:11.902Z,11.63
2022-11-01T01:18:40.049Z,11.43
2022-11-01T01:21:08.663Z,11.19
2022-11-01T01:23:37.206Z,11.17
2022-11-01T01:26:10.267Z,11.07
2022-11-01T01:28:41.938Z,10.82
2022-11-01T01:31:14.021Z,10.63
2022-11-01T01:33:42.317Z,10.53
2022-11-01T01:36:10.572Z,10.49
2022-11-01T01:38:38.524Z,10.51
2022-11-01T01:41:24.789Z,10.52
2022-11-01T01:43:52.966Z,10.52
2022-11-01T01:46:21.355Z,10.49
2022-11-01T01:48:55.022Z,10.52
2022-11-01T01:51:26.123Z,10.64
2022-11-01T01:53:56.247Z,10.67
2022-11-01T01:56:33.738Z,10.56
2022-11-01T01:59:10.391Z,10.43
2022-11-01T02:01:41.216Z,10.28
2022-11-01T02:04:18.470Z,10.21
2022-11-01T02:06:48.188Z,10.10
2022-11-01T02:09:16.489Z,9.97
2022-11-01T02:11:44.706Z,9.92
2022-11-01T02:14:13.187Z,9.98
2022-11-01T02:16:52.677Z,9.98
2022-11-01T02:19:20.581Z,9.84
2022-11-01T02:22:01.013Z,9.91
2022-11-01T02:24:44.985Z,9.86
2022-11-01T02:27:27.136Z,9.86
2022-11-01T02:30:04.146Z,9.87
2022-11-01T02:32:37.663Z,9.89
2022-11-01T02:35:11.582Z,9.93
2022-11-01T02:38:24.463Z,9.93
2022-11-01T02:41:18.700Z,10.03
2022-11-01T02:44:16.636Z,10.08
2022-11-01T02:47:01.542Z,10.12
2022-11-01T02:49:49.152Z,10.14
2022-11-01T02:52:25.068Z,10.13
2022-11-01T02:54:57.553Z,10.17
2022-11-01T02:57:38.629Z,10.14
2022-11-01T03:00:39.787Z,10.04
2022-11-01T03:03:23.058Z,10.02
2022-11-01T03:06:00.160Z,10.02
2022-11-01T03:08:30.298Z,10.06
2022-11-01T03:11:08.010Z,10.13
2022-11-01T03:13:46.615Z,10.13
2022-11-01T03:16:49.994Z,10.03
2022-11-01T03:19:32.576Z,9.93
2022-11-01T03:22:08.050Z,9.93
2022-11-01T03:25:00.792Z,9.97
2022-11-01T03:27:41.800Z,10.14
2022-11-01T03:30:14.248Z,10.25
2022-11-01T03:32:47.177Z,10.26
2022-11-01T03:35:22.389Z,10.37
2022-11-01T03:37:54.834Z,10.52
2022-11-01T03:40:26.264Z,10.61
2022-11-01T03:42:59.779Z,10.70
2022-11-01T03:45:30.662Z,10.80
2022-11-01T03:48:01.083Z,10.89
2022-11-01T03:50:29.656Z,10.94
2022-11-01T03:52:58.922Z,11.02
2022-11-01T03:55:26.954Z,11.07
2022-11-01T03:58:00.010Z,10.95
2022-11-01T04:00:47.960Z,10.83
2022-11-01T04:03:16.093Z,10.80
2022-11-01T04:05:44.122Z,10.77
2022-11-01T04:08:12.404Z,10.71
2022-11-01T04:10:40.615Z,10.77
2022-11-01T04:13:08.825Z,10.76
2022-11-01T04:15:55.232Z,10.82
2022-11-01T04:18:43.146Z,10.89
2022-11-01T04:21:21.545Z,10.74
2022-11-01T04:23:49.609Z,10.51
2022-11-01T04:26:20.578Z,10.46
2022-11-01T04:28:58.149Z,10.49
2022-11-01T04:31:35.285Z,10.59
2022-11-01T04:34:05.277Z,10.72
2022-11-01T04:36:33.302Z,10.82
2022-11-01T04:39:01.260Z,10.87
2022-11-01T04:41:30.023Z,10.88
2022-11-01T04:43:59.387Z,10.81
2022-11-01T04:46:31.981Z,10.82
2022-11-01T04:49:00.115Z,10.87
2022-11-01T04:51:28.303Z,10.95
2022-11-01T04:53:56.454Z,10.98
2022-11-01T04:56:24.523Z,10.97
2022-11-01T04:58:52.379Z,10.79
2022-11-01T05:01:20.343Z,10.43
2022-11-01T05:03:48.902Z,10.02
2022-11-01T05:06:17.094Z,9.77
2022-11-01T05:08:44.965Z,9.65
2022-11-01T05:11:12.793Z,9.70
2022-11-01T05:13:40.656Z,9.81
2022-11-01T05:16:23.693Z,9.95
2022-11-01T05:18:51.605Z,10.07
2022-11-01T05:21:19.449Z,10.18
2022-11-01T05:23:49.189Z,10.30
2022-11-01T05:26:17.510Z,10.45
2022-11-01T05:28:45.451Z,10.59
2022-11-01T05:31:14.180Z,10.71
2022-11-01T05:33:41.942Z,10.66
2022-11-01T05:36:09.946Z,10.56
2022-11-01T05:38:37.892Z,10.40
2022-11-01T05:41:06.004Z,10.36
2022-11-01T05:43:33.850Z,10.36
2022-11-01T05:46:06.204Z,10.37
2022-11-01T05:48:34.899Z,10.31
2022-11-01T05:51:02.842Z,10.13
2022-11-01T05:53:30.800Z,10.01
2022-11-01T05:55:59.897Z,10.00
2022-11-01T05:58:30.692Z,9.96
2022-11-01T06:01:00.447Z,10.04
2022-11-01T06:03:28.409Z,10.18
2022-11-01T06:05:56.348Z,10.34
2022-11-01T06:08:25.567Z,10.51
2022-11-01T06:10:54.098Z,10.64
2022-11-01T06:13:21.921Z,10.78
2022-11-01T06:15:50.131Z,10.93
2022-11-01T06:18:18.043Z,11.08
2022-11-01T06:20:45.879Z,11.21
2022-11-01T06:23:13.790Z,11.35
2022-11-01T06:25:41.626Z,11.36
2022-11-01T06:28:11.658Z,11.18
2022-11-01T06:30:39.504Z,11.22
2022-11-01T06:33:09.627Z,11.29
2022-11-01T06:35:40.441Z,11.39
2022-11-01T06:38:09.456Z,11.49
2022-11-01T06:40:37.807Z,11.53
2022-11-01T06:43:06.531Z,11.05
2022-11-01T06:45:34.828Z,10.65
2022-11-01T06:48:03.282Z,10.46
2022-11-01T06:50:31.995Z,10.37
2022-11-01T06:53:00.457Z,10.47
2022-11-01T06:55:29.509Z,10.63
2022-11-01T06:58:03.555Z,10.77
2022-11-01T07:00:32.585Z,10.92
2022-11-01T07:03:05.624Z,10.66
2022-11-01T07:05:37.164Z,10.61
2022-11-01T07:08:08.091Z,10.70
2022-11-01T07:10:38.295Z,10.69
2022-11-01T07:13:07.534Z,10.45
2022-11-01T07:15:35.695Z,10.34
2022-11-01T07:18:06.262Z,10.34
2022-11-01T07:20:42.146Z,10.40
2022-11-01T07:23:15.855Z,10.47
2022-11-01T07:25:44.484Z,10.57
2022-11-01T07:28:12.508Z,10.63
2022-11-01T07:30:40.410Z,10.72
2022-11-01T07:33:08.428Z,10.88
2022-11-01T07:35:36.657Z,11.06
2022-11-01T07:38:08.096Z,11.32
2022-11-01T07:40:40.916Z,11.48
2022-11-01T07:43:08.965Z,11.61
2022-11-01T07:45:37.497Z,11.76
2022-11-01T07:48:11.208Z,11.80
2022-11-01T07:50:40.659Z,11.98
2022-11-01T07:53:12.184Z,12.17
2022-11-01T07:55:41.049Z,12.46
2022-11-01T07:58:10.185Z,12.66
2022-11-01T08:00:39.323Z,12.58
2022-11-01T08:03:12.801Z,12.71
2022-11-01T08:05:42.597Z,12.70
2022-11-01T08:08:11.171Z,12.67
2022-11-01T08:10:39.718Z,12.82
2022-11-01T08:13:21.390Z,12.94
2022-11-01T08:15:50.942Z,12.71
2022-11-01T08:18:22.369Z,12.75
2022-11-01T08:20:51.279Z,13.02
2022-11-01T08:23:19.712Z,13.34
2022-11-01T08:25:47.705Z,13.49
2022-11-01T08:28:18.839Z,13.68
2022-11-01T08:30:49.353Z,13.82
2022-11-01T08:33:17.389Z,13.90
2022-11-01T08:35:50.100Z,14.15
2022-11-01T08:38:19.052Z,14.39
2022-11-01T08:40:48.035Z,14.43
2022-11-01T08:43:16.105Z,14.23
2022-11-01T08:45:44.300Z,14.25
2022-11-01T08:48:12.714Z,14.57
2022-11-01T08:50:41.039Z,14.68
2022-11-01T08:53:14.860Z,14.85
2022-11-01T08:55:42.818Z,15.04
2022-11-01T08:58:11.642Z,15.27
2022-11-01T09:00:39.537Z,15.41
2022-11-01T09:03:07.842Z,15.21
2022-11-01T09:05:36.292Z,15.51
2022-11-01T09:08:04.850Z,15.77
2022-11-01T09:10:33.043Z,15.90
2022-11-01T09:13:02.216Z,15.93
2022-11-01T09:15:30.548Z,15.93
2022-11-01T09:17:58.492Z,15.86
2022-11-01T09:20:28.280Z,15.96
2022-11-01T09:22:56.184Z,16.10
2022-11-01T09:25:24.883Z,16.14
2022-11-01T09:27:56.657Z,16.30
2022-11-01T09:30:25.432Z,16.39
2022-11-01T09:32:53.467Z,15.93
2022-11-01T09:35:21.367Z,15.91
2022-11-01T09:37:49.295Z,16.27
2022-11-01T09:40:17.384Z,16.68
2022-11-01T09:42:46.723Z,16.89
2022-11-01T09:45:21.134Z,17.18
2022-11-01T09:47:53.436Z,17.44
2022-11-01T09:50:31.444Z,17.59
2022-11-01T09:53:00.626Z,17.78
2022-11-01T09:55:43.352Z,18.08
2022-11-01T09:58:34.143Z,18.31
2022-11-01T10:01:39.591Z,18.36
2022-11-01T10:04:10.804Z,18.41
2022-11-01T10:06:43.968Z,18.07
2022-11-01T10:09:30.519Z,18.10
2022-11-01T10:12:13.692Z,18.38
2022-11-01T10:14:44.542Z,17.88
2022-11-01T10:17:15.024Z,17.96
2022-11-01T10:19:48.157Z,18.07
2022-11-01T10:22:18.545Z,18.41
2022-11-01T10:24:56.568Z,18.53
2022-11-01T10:27:47.782Z,18.69
2022-11-01T10:30:17.993Z,18.72
2022-11-01T10:33:17.020Z,18.64
2022-11-01T10:35:46.474Z,18.83
2022-11-01T10:38:59.144Z,18.67
2022-11-01T10:41:25.823Z,19.21
2022-11-01T10:44:01.163Z,19.56
2022-11-01T10:46:37.084Z,19.81
2022-11-01T10:49:14.860Z,19.90
2022-11-01T10:51:44.465Z,19.79
2022-11-01T10:54:26.075Z,19.67
2022-11-01T10:56:59.280Z,20.09
2022-11-01T10:59:42.698Z,20.33
2022-11-01T11:02:24.197Z,20.46
2022-11-01T11:04:52.387Z,20.19
2022-11-01T11:07:23.163Z,20.27
2022-11-01T11:09:52.056Z,20.29
2022-11-01T11:12:22.260Z,20.05
2022-11-01T11:14:54.534Z,20.32
2022-11-01T11:17:39.314Z,20.45
2022-11-01T11:20:10.807Z,20.50
2022-11-01T11:22:42.526Z,20.41
2022-11-01T11:25:19.889Z,20.27
2022-11-01T11:27:52.999Z,20.76
2022-11-01T11:30:32.963Z,20.29
2022-11-01T11:33:02.923Z,20.15
2022-11-01T11:35:33.626Z,20.48
2022-11-01T11:38:04.745Z,20.64
2022-11-01T11:40:39.338Z,20.98
2022-11-01T11:43:25.799Z,20.68
2022-11-01T11:46:04.011Z,20.69
2022-11-01T11:48:32.066Z,21.08
2022-11-01T11:51:06.150Z,20.88
2022-11-01T11:53:36.419Z,20.26
2022-11-01T11:56:11.671Z,20.36
2022-11-01T11:58:43.521Z,20.38
2022-11-01T12:01:15.867Z,20.46
2022-11-01T12:04:04.838Z,20.56
2022-11-01T12:06:39.130Z,20.68
2022-11-01T12:09:58.951Z,20.97
2022-11-01T12:12:30.401Z,21.21
2022-11-01T12:15:00.438Z,21.19
2022-11-01T12:17:46.927Z,21.30
2022-11-01T12:20:18.586Z,21.14
2022-11-01T12:23:12.558Z,20.80
2022-11-01T12:25:44.231Z,20.54
2022-11-01T12:28:29.625Z,20.30
2022-11-01T12:31:06.232Z,19.69
2022-11-01T12:33:41.147Z,19.75
2022-11-01T12:36:11.205Z,19.33
2022-11-01T12:38:42.826Z,19.13
2022-11-01T12:41:22.642Z,18.83
2022-11-01T12:43:53.494Z,18.30
2022-11-01T12:46:49.006Z,17.69
2022-11-01T12:49:29.377Z,17.37
2022-11-01T12:52:20.997Z,17.12
2022-11-01T12:55:00.607Z,16.78
2022-11-01T12:57:28.974Z,16.41
2022-11-01T12:59:57.184Z,16.07
2022-11-01T13:02:34.124Z,15.62
2022-11-01T13:05:09.917Z,15.58
2022-11-01T13:08:01.610Z,15.50
2022-11-01T13:10:36.656Z,15.29
2022-11-01T13:13:14.329Z,15.08
2022-11-01T13:15:51.275Z,14.88
2022-11-01T13:18:28.155Z,14.90
2022-11-01T13:21:01.841Z,14.86
2022-11-01T13:23:44.024Z,14.72
2022-11-01T13:26:18.110Z,14.49
2022-11-01T13:28:55.159Z,14.25
2022-11-01T13:32:01.067Z,14.23
2022-11-01T13:34:40.142Z,14.07
2022-11-01T13:37:24.148Z,14.11
2022-11-01T13:40:07.132Z,14.01
2022-11-01T13:43:09.801Z,13.96
2022-11-01T13:46:01.019Z,13.96
2022-11-01T13:49:05.117Z,13.89
2022-11-01T13:51:48.345Z,13.71
2022-11-01T13:54:16.208Z,13.61
2022-11-01T13:57:09.405Z,13.65
2022-11-01T13:59:37.180Z,13.62
2022-11-01T14:02:23.660Z,13.62
2022-11-01T14:05:10.971Z,13.64
2022-11-01T14:07:39.485Z,13.56
2022-11-01T14:10:22.314Z,13.59
2022-11-01T14:13:08.466Z,13.62
2022-11-01T14:15:54.747Z,13.56
2022-11-01T14:18:23.092Z,13.45
2022-11-01T14:20:52.676Z,13.33
2022-11-01T14:23:30.026Z,13.26
2022-11-01T14:26:21.363Z,13.25
2022-11-01T14:28:51.459Z,13.10
2022-11-01T14:31:23.516Z,13.07
2022-11-01T14:33:56.076Z,12.83
2022-11-01T14:36:31.334Z,12.71
2022-11-01T14:39:17.765Z,12.78
2022-11-01T14:41:51.253Z,12.83
2022-11-01T14:44:32.854Z,12.78
2022-11-01T14:47:08.201Z,12.78
2022-11-01T14:49:42.420Z,12.79
2022-11-01T14:52:35.758Z,12.80
2022-11-01T14:55:20.871Z,12.84
2022-11-01T14:57:49.317Z,12.87
2022-11-01T15:00:32.028Z,12.89
2022-11-01T15:03:02.483Z,12.76
2022-11-01T15:05:31.167Z,12.79
2022-11-01T15:08:02.351Z,12.63
2022-11-01T15:10:41.504Z,12.64
2022-11-01T15:13:15.443Z,12.64
2022-11-01T15:15:49.967Z,12.70
2022-11-01T15:18:20.606Z,12.80
2022-11-01T15:20:52.054Z,12.89
2022-11-01T15:23:27.725Z,12.95
2022-11-01T15:25:57.792Z,12.91
2022-11-01T15:28:29.470Z,12.94
2022-11-01T15:31:03.190Z,12.98
2022-11-01T15:33:32.204Z,12.97
2022-11-01T15:36:03.132Z,12.91
2022-11-01T15:38:35.216Z,12.95
2022-11-01T15:41:26.926Z,12.82
2022-11-01T15:43:56.973Z,12.74
2022-11-01T15:46:29.279Z,12.77
2022-11-01T15:49:01.424Z,12.77
2022-11-01T15:51:30.635Z,12.80
2022-11-01T15:54:06.478Z,12.86
2022-11-01T15:56:44.923Z,12.80
2022-11-01T15:59:25.003Z,12.85
2022-11-01T16:01:53.532Z,12.92
2022-11-01T16:04:24.887Z,12.92
2022-11-01T16:07:02.969Z,12.88
2022-11-01T16:09:49.727Z,12.84
2022-11-01T16:12:20.814Z,12.69
2022-11-01T16:14:56.282Z,12.65
2022-11-01T16:17:31.954Z,12.63
2022-11-01T16:20:00.009Z,12.56
2022-11-01T16:22:36.030Z,12.32
2022-11-01T16:25:14.845Z,12.36
2022-11-01T16:28:01.355Z,12.45
2022-11-01T16:30:43.011Z,12.50
2022-11-01T16:33:35.558Z,12.52
2022-11-01T18:59:37.242Z,12.12
2022-11-01T19:02:11.327Z,12.18
2022-11-01T19:04:42.741Z,12.21
2022-11-01T19:07:23.027Z,12.24
2022-11-01T19:10:00.303Z,12.30
2022-11-01T19:12:39.436Z,12.31
2022-11-01T19:15:11.736Z,12.27
2022-11-01T19:17:47.941Z,12.28
2022-11-01T19:20:30.329Z,12.30
2022-11-01T19:23:01.399Z,12.31
2022-11-01T19:25:32.596Z,12.30
2022-11-01T19:28:30.936Z,12.23
2022-11-01T19:31:07.076Z,12.13
2022-11-01T19:33:38.806Z,12.01
2022-11-01T19:36:21.138Z,11.98
2022-11-01T19:38:50.460Z,11.97
2022-11-01T19:41:29.073Z,11.96
2022-11-01T19:44:02.289Z,11.94
2022-11-01T19:46:30.200Z,11.93
2022-11-01T19:48:58.072Z,11.92
2022-11-01T19:51:27.118Z,11.92
2022-11-01T19:53:57.563Z,11.93
2022-11-01T19:56:31.535Z,11.93
2022-11-01T19:59:03.672Z,11.92
2022-11-01T20:01:44.257Z,11.91
2022-11-01T20:04:27.979Z,11.91
2022-11-01T20:07:09.557Z,11.91
2022-11-01T20:09:39.017Z,11.89
2022-11-01T20:12:08.153Z,11.89
2022-11-01T20:14:36.562Z,11.90
2022-11-01T20:17:05.092Z,11.91
2022-11-01T20:19:33.497Z,11.90
2022-11-01T20:22:01.518Z,11.89
2022-11-01T20:24:30.923Z,11.90
2022-11-01T20:27:00.813Z,11.89
2022-11-01T20:29:28.870Z,11.89
2022-11-01T20:31:56.989Z,11.87
2022-11-01T20:34:27.477Z,11.86
2022-11-01T20:39:47.280Z,11.73
2022-11-01T20:42:15.645Z,11.74
2022-11-01T20:44:43.692Z,11.68
2022-11-01T20:47:11.663Z,11.53
2022-11-01T20:49:41.983Z,11.41
2022-11-01T20:52:33.921Z,11.36
2022-11-01T20:54:57.981Z,11.35
2022-11-01T20:57:28.349Z,11.35
2022-11-01T20:59:57.303Z,11.36
2022-11-01T21:02:26.167Z,11.38
2022-11-01T21:05:15.724Z,11.27
2022-11-01T21:07:48.101Z,11.10
2022-11-01T21:10:41.047Z,11.07
2022-11-01T21:13:21.844Z,11.01
2022-11-01T21:15:51.340Z,11.03
2022-11-01T21:22:12.196Z,10.89
2022-11-01T21:24:47.122Z,10.90
2022-11-01T21:30:14.314Z,11.00
2022-11-01T21:32:45.552Z,11.02
2022-11-01T21:35:20.832Z,11.04
2022-11-01T21:38:01.900Z,11.08
2022-11-01T21:40:32.611Z,11.13
